sensor_id;sensor_type;location;lat;lon;timestamp;P1;durP1;ratioP1;P2;durP2;ratioP2
35150;SDS011;55720;51.972;4.624;2022-11-15T00:00:13;93.88;;;31.52;;
35150;SDS011;55720;51.972;4.624;2022-11-15T00:02:39;98.60;;;31.55;;
35150;SDS011;55720;51.972;4.624;2022-11-15T00:05:04;106.95;;;31.70;;
35150;SDS011;55720;51.972;4.624;2022-11-15T00:07:30;101.20;;;32.60;;
35150;SDS011;55720;51.972;4.624;2022-11-15T00:09:55;110.35;;;33.53;;
35150;SDS011;55720;51.972;4.624;2022-11-15T00:12:20;99.20;;;32.10;;
35150;SDS011;55720;51.972;4.624;2022-11-15T00:14:46;103.47;;;31.90;;
35150;SDS011;55720;51.972;4.624;2022-11-15T00:17:11;119.10;;;33.88;;
35150;SDS011;55720;51.972;4.624;2022-11-15T00:19:36;115.45;;;33.90;;
35150;SDS011;55720;51.972;4.624;2022-11-15T00:22:02;108.72;;;33.00;;
35150;SDS011;55720;51.972;4.624;2022-11-15T00:24:27;124.57;;;32.85;;
35150;SDS011;55720;51.972;4.624;2022-11-15T00:26:52;113.43;;;33.30;;
35150;SDS011;55720;51.972;4.624;2022-11-15T00:29:17;134.90;;;34.95;;
35150;SDS011;55720;51.972;4.624;2022-11-15T00:31:43;120.00;;;32.25;;
35150;SDS011;55720;51.972;4.624;2022-11-15T00:34:09;110.40;;;32.60;;
35150;SDS011;55720;51.972;4.624;2022-11-15T00:36:35;113.85;;;32.83;;
35150;SDS011;55720;51.972;4.624;2022-11-15T00:39:00;129.80;;;32.70;;
35150;SDS011;55720;51.972;4.624;2022-11-15T00:41:28;108.10;;;32.45;;
35150;SDS011;55720;51.972;4.624;2022-11-15T00:43:53;127.47;;;33.45;;
35150;SDS011;55720;51.972;4.624;2022-11-15T00:46:18;128.75;;;34.33;;
35150;SDS011;55720;51.972;4.624;2022-11-15T00:48:44;130.25;;;36.03;;
35150;SDS011;55720;51.972;4.624;2022-11-15T00:51:09;137.15;;;34.13;;
35150;SDS011;55720;51.972;4.624;2022-11-15T00:53:34;125.15;;;35.13;;
35150;SDS011;55720;51.972;4.624;2022-11-15T00:56:00;139.30;;;35.97;;
35150;SDS011;55720;51.972;4.624;2022-11-15T00:58:25;121.35;;;35.83;;
35150;SDS011;55720;51.972;4.624;2022-11-15T01:00:51;134.52;;;35.10;;
35150;SDS011;55720;51.972;4.624;2022-11-15T01:03:16;126.97;;;36.53;;
35150;SDS011;55720;51.972;4.624;2022-11-15T01:05:41;129.18;;;35.30;;
35150;SDS011;55720;51.972;4.624;2022-11-15T01:08:11;136.32;;;35.78;;
35150;SDS011;55720;51.972;4.624;2022-11-15T01:13:02;133.57;;;35.92;;
35150;SDS011;55720;51.972;4.624;2022-11-15T01:15:27;143.73;;;37.60;;
35150;SDS011;55720;51.972;4.624;2022-11-15T01:17:53;142.70;;;37.53;;
35150;SDS011;55720;51.972;4.624;2022-11-15T01:20:18;137.43;;;36.95;;
35150;SDS011;55720;51.972;4.624;2022-11-15T01:22:43;149.80;;;37.72;;
35150;SDS011;55720;51.972;4.624;2022-11-15T01:25:09;147.45;;;38.70;;
35150;SDS011;55720;51.972;4.624;2022-11-15T01:27:34;141.27;;;36.72;;
35150;SDS011;55720;51.972;4.624;2022-11-15T01:29:59;133.10;;;38.17;;
35150;SDS011;55720;51.972;4.624;2022-11-15T01:32:25;146.82;;;38.40;;
35150;SDS011;55720;51.972;4.624;2022-11-15T01:34:50;148.88;;;39.13;;
35150;SDS011;55720;51.972;4.624;2022-11-15T01:37:15;155.05;;;39.08;;
35150;SDS011;55720;51.972;4.624;2022-11-15T01:39:41;141.32;;;38.55;;
35150;SDS011;55720;51.972;4.624;2022-11-15T01:42:09;142.48;;;40.17;;
35150;SDS011;55720;51.972;4.624;2022-11-15T01:44:39;135.40;;;37.80;;
35150;SDS011;55720;51.972;4.624;2022-11-15T01:47:17;102.10;;;28.05;;
35150;SDS011;55720;51.972;4.624;2022-11-15T01:49:54;143.35;;;39.58;;
35150;SDS011;55720;51.972;4.624;2022-11-15T01:52:25;139.63;;;36.92;;
35150;SDS011;55720;51.972;4.624;2022-11-15T01:54:55;133.25;;;37.92;;
35150;SDS011;55720;51.972;4.624;2022-11-15T01:57:26;149.43;;;38.55;;
35150;SDS011;55720;51.972;4.624;2022-11-15T01:59:51;142.73;;;38.95;;
35150;SDS011;55720;51.972;4.624;2022-11-15T02:02:17;151.73;;;40.08;;
35150;SDS011;55720;51.972;4.624;2022-11-15T02:04:43;135.38;;;39.42;;
35150;SDS011;55720;51.972;4.624;2022-11-15T02:07:11;148.73;;;41.55;;
35150;SDS011;55720;51.972;4.624;2022-11-15T02:09:41;161.32;;;40.65;;
35150;SDS011;55720;51.972;4.624;2022-11-15T02:12:07;139.85;;;41.15;;
35150;SDS011;55720;51.972;4.624;2022-11-15T02:14:36;144.02;;;38.92;;
35150;SDS011;55720;51.972;4.624;2022-11-15T02:36:40;134.95;;;40.33;;
35150;SDS011;55720;51.972;4.624;2022-11-15T02:39:19;140.38;;;39.70;;
35150;SDS011;55720;51.972;4.624;2022-11-15T02:44:56;131.35;;;38.50;;
35150;SDS011;55720;51.972;4.624;2022-11-15T02:47:24;132.60;;;39.80;;
35150;SDS011;55720;51.972;4.624;2022-11-15T02:49:53;146.27;;;40.38;;
35150;SDS011;55720;51.972;4.624;2022-11-15T02:52:23;153.83;;;44.07;;
35150;SDS011;55720;51.972;4.624;2022-11-15T02:54:54;138.60;;;39.78;;
35150;SDS011;55720;51.972;4.624;2022-11-15T02:57:44;141.25;;;40.08;;
35150;SDS011;55720;51.972;4.624;2022-11-15T03:00:25;136.48;;;38.53;;
35150;SDS011;55720;51.972;4.624;2022-11-15T03:11:01;121.88;;;37.28;;
35150;SDS011;55720;51.972;4.624;2022-11-15T03:21:55;93.38;;;35.17;;
35150;SDS011;55720;51.972;4.624;2022-11-15T03:24:22;107.13;;;37.20;;
35150;SDS011;55720;51.972;4.624;2022-11-15T03:26:50;100.88;;;34.13;;
35150;SDS011;55720;51.972;4.624;2022-11-15T03:29:26;98.43;;;34.72;;
35150;SDS011;55720;51.972;4.624;2022-11-15T03:31:58;94.05;;;35.55;;
35150;SDS011;55720;51.972;4.624;2022-11-15T03:34:32;99.25;;;34.65;;
35150;SDS011;55720;51.972;4.624;2022-11-15T03:37:09;102.65;;;36.15;;
35150;SDS011;55720;51.972;4.624;2022-11-15T03:39:38;108.85;;;35.83;;
35150;SDS011;55720;51.972;4.624;2022-11-15T03:47:20;89.20;;;34.63;;
35150;SDS011;55720;51.972;4.624;2022-11-15T03:49:51;92.10;;;33.25;;
35150;SDS011;55720;51.972;4.624;2022-11-15T03:52:21;82.80;;;32.28;;
35150;SDS011;55720;51.972;4.624;2022-11-15T03:54:54;96.18;;;32.55;;
35150;SDS011;55720;51.972;4.624;2022-11-15T03:57:20;78.40;;;30.58;;
35150;SDS011;55720;51.972;4.624;2022-11-15T03:59:46;85.07;;;32.97;;
35150;SDS011;55720;51.972;4.624;2022-11-15T04:02:12;74.07;;;31.70;;
35150;SDS011;55720;51.972;4.624;2022-11-15T04:04:37;83.25;;;30.30;;
35150;SDS011;55720;51.972;4.624;2022-11-15T04:07:03;78.40;;;29.20;;
35150;SDS011;55720;51.972;4.624;2022-11-15T04:09:32;75.03;;;29.73;;
35150;SDS011;55720;51.972;4.624;2022-11-15T04:11:57;75.65;;;29.85;;
35150;SDS011;55720;51.972;4.624;2022-11-15T04:14:22;70.93;;;29.42;;
35150;SDS011;55720;51.972;4.624;2022-11-15T04:16:48;63.25;;;27.15;;
35150;SDS011;55720;51.972;4.624;2022-11-15T04:19:13;71.22;;;28.20;;
35150;SDS011;55720;51.972;4.624;2022-11-15T04:21:57;63.20;;;26.77;;
35150;SDS011;55720;51.972;4.624;2022-11-15T04:24:41;63.20;;;26.75;;
35150;SDS011;55720;51.972;4.624;2022-11-15T04:27:06;72.38;;;27.70;;
35150;SDS011;55720;51.972;4.624;2022-11-15T04:29:31;57.53;;;25.55;;
35150;SDS011;55720;51.972;4.624;2022-11-15T04:32:00;57.53;;;24.58;;
35150;SDS011;55720;51.972;4.624;2022-11-15T04:34:27;56.85;;;25.15;;
35150;SDS011;55720;51.972;4.624;2022-11-15T04:36:52;63.05;;;25.20;;
35150;SDS011;55720;51.972;4.624;2022-11-15T04:39:36;57.65;;;24.55;;
35150;SDS011;55720;51.972;4.624;2022-11-15T04:42:02;55.22;;;23.90;;
35150;SDS011;55720;51.972;4.624;2022-11-15T04:44:27;58.15;;;24.60;;
35150;SDS011;55720;51.972;4.624;2022-11-15T04:46:53;50.17;;;22.63;;
35150;SDS011;55720;51.972;4.624;2022-11-15T04:49:18;52.55;;;22.95;;
35150;SDS011;55720;51.972;4.624;2022-11-15T04:51:43;55.40;;;24.05;;
35150;SDS011;55720;51.972;4.624;2022-11-15T04:54:09;52.38;;;23.70;;
35150;SDS011;55720;51.972;4.624;2022-11-15T04:56:35;46.72;;;23.85;;
35150;SDS011;55720;51.972;4.624;2022-11-15T04:59:00;59.10;;;22.73;;
35150;SDS011;55720;51.972;4.624;2022-11-15T05:01:25;47.00;;;22.65;;
35150;SDS011;55720;51.972;4.624;2022-11-15T05:03:51;45.88;;;22.67;;
35150;SDS011;55720;51.972;4.624;2022-11-15T05:06:35;41.33;;;21.13;;
35150;SDS011;55720;51.972;4.624;2022-11-15T05:09:00;45.50;;;23.40;;
35150;SDS011;55720;51.972;4.624;2022-11-15T05:11:25;39.13;;;19.77;;
35150;SDS011;55720;51.972;4.624;2022-11-15T05:13:52;42.58;;;19.63;;
35150;SDS011;55720;51.972;4.624;2022-11-15T05:16:18;45.75;;;20.08;;
35150;SDS011;55720;51.972;4.624;2022-11-15T05:18:44;38.42;;;18.73;;
35150;SDS011;55720;51.972;4.624;2022-11-15T05:21:11;36.70;;;18.15;;
35150;SDS011;55720;51.972;4.624;2022-11-15T05:23:38;37.55;;;17.73;;
35150;SDS011;55720;51.972;4.624;2022-11-15T05:26:05;33.97;;;16.90;;
35150;SDS011;55720;51.972;4.624;2022-11-15T05:28:31;33.75;;;16.08;;
35150;SDS011;55720;51.972;4.624;2022-11-15T05:31:01;32.28;;;16.10;;
35150;SDS011;55720;51.972;4.624;2022-11-15T05:33:28;35.28;;;15.77;;
35150;SDS011;55720;51.972;4.624;2022-11-15T05:36:36;27.60;;;14.88;;
35150;SDS011;55720;51.972;4.624;2022-11-15T05:38:45;30.08;;;14.48;;
35150;SDS011;55720;51.972;4.624;2022-11-15T05:41:12;29.05;;;13.75;;
35150;SDS011;55720;51.972;4.624;2022-11-15T05:43:38;30.77;;;13.77;;
35150;SDS011;55720;51.972;4.624;2022-11-15T05:46:05;26.10;;;13.00;;
35150;SDS011;55720;51.972;4.624;2022-11-15T05:48:31;30.17;;;13.82;;
35150;SDS011;55720;51.972;4.624;2022-11-15T05:50:58;26.52;;;13.68;;
35150;SDS011;55720;51.972;4.624;2022-11-15T05:53:24;22.92;;;12.68;;
35150;SDS011;55720;51.972;4.624;2022-11-15T05:55:50;25.58;;;12.30;;
35150;SDS011;55720;51.972;4.624;2022-11-15T05:58:16;23.00;;;12.10;;
35150;SDS011;55720;51.972;4.624;2022-11-15T06:00:43;25.15;;;13.18;;
35150;SDS011;55720;51.972;4.624;2022-11-15T06:03:08;24.70;;;12.23;;
35150;SDS011;55720;51.972;4.624;2022-11-15T06:05:34;30.08;;;11.98;;
35150;SDS011;55720;51.972;4.624;2022-11-15T06:08:00;24.33;;;11.35;;
35150;SDS011;55720;51.972;4.624;2022-11-15T06:10:25;21.83;;;11.60;;
35150;SDS011;55720;51.972;4.624;2022-11-15T06:13:00;21.52;;;10.73;;
35150;SDS011;55720;51.972;4.624;2022-11-15T06:15:27;21.77;;;10.25;;
35150;SDS011;55720;51.972;4.624;2022-11-15T06:17:55;19.83;;;10.32;;
35150;SDS011;55720;51.972;4.624;2022-11-15T06:20:22;23.08;;;9.40;;
35150;SDS011;55720;51.972;4.624;2022-11-15T06:22:49;18.00;;;8.77;;
35150;SDS011;55720;51.972;4.624;2022-11-15T06:25:14;14.18;;;8.63;;
35150;SDS011;55720;51.972;4.624;2022-11-15T06:27:40;20.85;;;8.48;;
35150;SDS011;55720;51.972;4.624;2022-11-15T06:30:05;16.33;;;7.60;;
35150;SDS011;55720;51.972;4.624;2022-11-15T06:32:31;11.52;;;7.28;;
35150;SDS011;55720;51.972;4.624;2022-11-15T06:34:56;22.77;;;8.35;;
35150;SDS011;55720;51.972;4.624;2022-11-15T06:37:21;13.00;;;7.40;;
35150;SDS011;55720;51.972;4.624;2022-11-15T06:39:47;15.02;;;7.97;;
35150;SDS011;55720;51.972;4.624;2022-11-15T06:42:12;17.80;;;7.80;;
35150;SDS011;55720;51.972;4.624;2022-11-15T06:44:37;18.13;;;7.70;;
35150;SDS011;55720;51.972;4.624;2022-11-15T06:47:03;20.38;;;8.20;;
35150;SDS011;55720;51.972;4.624;2022-11-15T06:49:28;21.48;;;8.38;;
35150;SDS011;55720;51.972;4.624;2022-11-15T06:51:54;17.65;;;8.70;;
35150;SDS011;55720;51.972;4.624;2022-11-15T06:54:19;15.82;;;8.15;;
35150;SDS011;55720;51.972;4.624;2022-11-15T06:56:45;19.17;;;9.15;;
35150;SDS011;55720;51.972;4.624;2022-11-15T06:59:11;15.18;;;7.85;;
35150;SDS011;55720;51.972;4.624;2022-11-15T07:01:36;13.80;;;8.27;;
35150;SDS011;55720;51.972;4.624;2022-11-15T07:04:01;19.55;;;8.32;;
35150;SDS011;55720;51.972;4.624;2022-11-15T07:06:27;18.20;;;8.57;;
35150;SDS011;55720;51.972;4.624;2022-11-15T07:08:52;16.38;;;7.75;;
35150;SDS011;55720;51.972;4.624;2022-11-15T07:11:17;21.27;;;7.97;;
35150;SDS011;55720;51.972;4.624;2022-11-15T07:13:43;25.58;;;8.27;;
35150;SDS011;55720;51.972;4.624;2022-11-15T07:16:11;17.35;;;7.80;;
35150;SDS011;55720;51.972;4.624;2022-11-15T07:18:37;16.58;;;7.70;;
35150;SDS011;55720;51.972;4.624;2022-11-15T07:21:04;21.52;;;7.70;;
35150;SDS011;55720;51.972;4.624;2022-11-15T07:23:32;16.63;;;6.95;;
35150;SDS011;55720;51.972;4.624;2022-11-15T07:25:57;13.00;;;6.45;;
35150;SDS011;55720;51.972;4.624;2022-11-15T07:28:23;12.02;;;6.45;;
35150;SDS011;55720;51.972;4.624;2022-11-15T07:30:50;13.57;;;5.63;;
35150;SDS011;55720;51.972;4.624;2022-11-15T07:33:15;9.88;;;6.15;;
35150;SDS011;55720;51.972;4.624;2022-11-15T07:35:40;11.07;;;5.85;;
35150;SDS011;55720;51.972;4.624;2022-11-15T07:38:07;13.63;;;5.60;;
35150;SDS011;55720;51.972;4.624;2022-11-15T07:40:33;13.68;;;5.35;;
35150;SDS011;55720;51.972;4.624;2022-11-15T07:43:02;13.15;;;5.93;;
35150;SDS011;55720;51.972;4.624;2022-11-15T07:45:29;25.13;;;7.97;;
35150;SDS011;55720;51.972;4.624;2022-11-15T07:47:55;14.75;;;5.65;;
35150;SDS011;55720;51.972;4.624;2022-11-15T07:50:22;14.15;;;6.63;;
35150;SDS011;55720;51.972;4.624;2022-11-15T07:52:51;13.60;;;5.93;;
35150;SDS011;55720;51.972;4.624;2022-11-15T07:55:19;13.55;;;6.95;;
35150;SDS011;55720;51.972;4.624;2022-11-15T07:57:44;14.05;;;6.55;;
35150;SDS011;55720;51.972;4.624;2022-11-15T08:00:10;8.02;;;6.47;;
35150;SDS011;55720;51.972;4.624;2022-11-15T08:02:35;15.98;;;6.47;;
35150;SDS011;55720;51.972;4.624;2022-11-15T08:05:01;11.40;;;7.10;;
35150;SDS011;55720;51.972;4.624;2022-11-15T08:07:28;18.45;;;7.63;;
35150;SDS011;55720;51.972;4.624;2022-11-15T08:09:55;17.88;;;8.40;;
35150;SDS011;55720;51.972;4.624;2022-11-15T08:12:20;14.55;;;8.27;;
35150;SDS011;55720;51.972;4.624;2022-11-15T08:14:45;19.17;;;9.52;;
35150;SDS011;55720;51.972;4.624;2022-11-15T08:17:11;18.00;;;8.63;;
35150;SDS011;55720;51.972;4.624;2022-11-15T08:19:36;16.85;;;8.05;;
35150;SDS011;55720;51.972;4.624;2022-11-15T08:22:01;18.05;;;8.15;;
35150;SDS011;55720;51.972;4.624;2022-11-15T08:24:27;14.98;;;8.98;;
35150;SDS011;55720;51.972;4.624;2022-11-15T08:26:52;15.10;;;8.63;;
35150;SDS011;55720;51.972;4.624;2022-11-15T08:29:17;13.50;;;8.48;;
35150;SDS011;55720;51.972;4.624;2022-11-15T08:31:43;11.80;;;8.65;;
35150;SDS011;55720;51.972;4.624;2022-11-15T08:34:08;19.67;;;9.30;;
35150;SDS011;55720;51.972;4.624;2022-11-15T08:36:33;13.65;;;7.78;;
35150;SDS011;55720;51.972;4.624;2022-11-15T08:38:59;12.57;;;9.00;;
35150;SDS011;55720;51.972;4.624;2022-11-15T08:41:25;13.82;;;8.63;;
35150;SDS011;55720;51.972;4.624;2022-11-15T08:43:55;13.35;;;7.88;;
35150;SDS011;55720;51.972;4.624;2022-11-15T08:46:20;15.52;;;7.80;;
35150;SDS011;55720;51.972;4.624;2022-11-15T08:48:46;13.13;;;7.35;;
35150;SDS011;55720;51.972;4.624;2022-11-15T08:51:11;12.77;;;6.90;;
35150;SDS011;55720;51.972;4.624;2022-11-15T08:53:36;14.57;;;7.18;;
35150;SDS011;55720;51.972;4.624;2022-11-15T08:56:02;12.20;;;7.05;;
35150;SDS011;55720;51.972;4.624;2022-11-15T08:58:28;13.60;;;6.82;;
35150;SDS011;55720;51.972;4.624;2022-11-15T09:00:53;11.20;;;6.22;;
35150;SDS011;55720;51.972;4.624;2022-11-15T09:03:19;12.07;;;6.18;;
35150;SDS011;55720;51.972;4.624;2022-11-15T09:05:45;16.50;;;7.10;;
35150;SDS011;55720;51.972;4.624;2022-11-15T09:08:10;12.55;;;6.40;;
35150;SDS011;55720;51.972;4.624;2022-11-15T09:10:37;13.82;;;6.40;;
35150;SDS011;55720;51.972;4.624;2022-11-15T09:13:03;11.80;;;6.03;;
35150;SDS011;55720;51.972;4.624;2022-11-15T09:15:28;7.63;;;6.38;;
35150;SDS011;55720;51.972;4.624;2022-11-15T09:17:57;10.85;;;6.03;;
35150;SDS011;55720;51.972;4.624;2022-11-15T09:20:23;8.77;;;5.47;;
35150;SDS011;55720;51.972;4.624;2022-11-15T09:22:48;8.85;;;5.38;;
35150;SDS011;55720;51.972;4.624;2022-11-15T09:25:14;10.23;;;5.50;;
35150;SDS011;55720;51.972;4.624;2022-11-15T09:27:39;11.95;;;5.63;;
35150;SDS011;55720;51.972;4.624;2022-11-15T09:30:04;10.18;;;4.35;;
35150;SDS011;55720;51.972;4.624;2022-11-15T09:32:30;8.70;;;4.38;;
35150;SDS011;55720;51.972;4.624;2022-11-15T09:34:57;5.30;;;4.72;;
35150;SDS011;55720;51.972;4.624;2022-11-15T09:37:22;8.57;;;4.60;;
35150;SDS011;55720;51.972;4.624;2022-11-15T09:39:48;8.93;;;5.07;;
35150;SDS011;55720;51.972;4.624;2022-11-15T09:42:30;10.80;;;4.88;;
35150;SDS011;55720;51.972;4.624;2022-11-15T09:46:15;12.80;;;3.78;;
35150;SDS011;55720;51.972;4.624;2022-11-15T09:48:39;10.35;;;3.50;;
35150;SDS011;55720;51.972;4.624;2022-11-15T09:51:25;6.13;;;3.22;;
35150;SDS011;55720;51.972;4.624;2022-11-15T09:54:37;5.20;;;3.50;;
35150;SDS011;55720;51.972;4.624;2022-11-15T09:56:42;8.98;;;3.17;;
35150;SDS011;55720;51.972;4.624;2022-11-15T10:02:02;4.82;;;2.80;;
35150;SDS011;55720;51.972;4.624;2022-11-15T10:04:29;7.47;;;3.15;;
35150;SDS011;55720;51.972;4.624;2022-11-15T10:07:02;5.30;;;3.22;;
35150;SDS011;55720;51.972;4.624;2022-11-15T10:09:31;6.78;;;2.90;;
35150;SDS011;55720;51.972;4.624;2022-11-15T10:12:12;3.10;;;2.40;;
35150;SDS011;55720;51.972;4.624;2022-11-15T10:14:39;5.85;;;2.83;;
35150;SDS011;55720;51.972;4.624;2022-11-15T10:17:30;4.38;;;2.20;;
35150;SDS011;55720;51.972;4.624;2022-11-15T10:20:00;6.22;;;2.83;;
35150;SDS011;55720;51.972;4.624;2022-11-15T10:22:40;8.93;;;2.88;;
35150;SDS011;55720;51.972;4.624;2022-11-15T10:27:40;8.32;;;2.33;;
35150;SDS011;55720;51.972;4.624;2022-11-15T10:30:15;5.20;;;2.65;;
35150;SDS011;55720;51.972;4.624;2022-11-15T10:32:43;5.10;;;2.38;;
35150;SDS011;55720;51.972;4.624;2022-11-15T10:35:30;4.63;;;2.33;;
35150;SDS011;55720;51.972;4.624;2022-11-15T10:38:04;4.07;;;2.15;;
35150;SDS011;55720;51.972;4.624;2022-11-15T10:43:11;5.32;;;2.20;;
35150;SDS011;55720;51.972;4.624;2022-11-15T10:45:39;6.25;;;2.28;;
35150;SDS011;55720;51.972;4.624;2022-11-15T10:50:37;5.15;;;2.10;;
35150;SDS011;55720;51.972;4.624;2022-11-15T10:53:11;5.30;;;1.90;;
35150;SDS011;55720;51.972;4.624;2022-11-15T10:55:46;4.40;;;1.92;;
35150;SDS011;55720;51.972;4.624;2022-11-15T10:58:21;2.30;;;1.60;;
35150;SDS011;55720;51.972;4.624;2022-11-15T11:03:39;4.22;;;1.73;;
35150;SDS011;55720;51.972;4.624;2022-11-15T11:08:31;6.57;;;2.10;;
35150;SDS011;55720;51.972;4.624;2022-11-15T11:10:58;6.85;;;1.85;;
35150;SDS011;55720;51.972;4.624;2022-11-15T11:13:35;4.32;;;1.92;;
35150;SDS011;55720;51.972;4.624;2022-11-15T11:21:30;4.47;;;1.60;;
35150;SDS011;55720;51.972;4.624;2022-11-15T11:24:12;3.95;;;1.77;;
35150;SDS011;55720;51.972;4.624;2022-11-15T11:27:13;4.88;;;1.55;;
35150;SDS011;55720;51.972;4.624;2022-11-15T11:35:20;6.15;;;1.52;;
35150;SDS011;55720;51.972;4.624;2022-11-15T11:40:58;3.60;;;1.23;;
35150;SDS011;55720;51.972;4.624;2022-11-15T11:46:28;6.05;;;1.65;;
35150;SDS011;55720;51.972;4.624;2022-11-15T11:49:01;2.53;;;1.20;;
35150;SDS011;55720;51.972;4.624;2022-11-15T11:54:14;3.10;;;1.05;;
35150;SDS011;55720;51.972;4.624;2022-11-15T11:56:45;10.05;;;1.27;;
35150;SDS011;55720;51.972;4.624;2022-11-15T12:02:20;3.17;;;1.00;;
35150;SDS011;55720;51.972;4.624;2022-11-15T12:04:55;4.28;;;1.00;;
35150;SDS011;55720;51.972;4.624;2022-11-15T12:07:29;6.25;;;0.95;;
35150;SDS011;55720;51.972;4.624;2022-11-15T12:12:46;8.43;;;1.10;;
35150;SDS011;55720;51.972;4.624;2022-11-15T12:15:22;6.95;;;0.98;;
35150;SDS011;55720;51.972;4.624;2022-11-15T12:17:51;4.82;;;0.70;;
35150;SDS011;55720;51.972;4.624;2022-11-15T12:20:18;9.27;;;1.35;;
35150;SDS011;55720;51.972;4.624;2022-11-15T12:22:57;3.78;;;1.17;;
35150;SDS011;55720;51.972;4.624;2022-11-15T12:25:33;5.15;;;1.05;;
35150;SDS011;55720;51.972;4.624;2022-11-15T12:30:47;3.55;;;0.93;;
35150;SDS011;55720;51.972;4.624;2022-11-15T12:36:09;2.80;;;0.85;;
35150;SDS011;55720;51.972;4.624;2022-11-15T12:41:24;4.70;;;1.23;;
35150;SDS011;55720;51.972;4.624;2022-11-15T12:44:00;7.28;;;1.27;;
35150;SDS011;55720;51.972;4.624;2022-11-15T13:04:54;1.77;;;0.70;;
35150;SDS011;55720;51.972;4.624;2022-11-15T13:17:54;4.10;;;0.70;;
35150;SDS011;55720;51.972;4.624;2022-11-15T13:25:27;4.50;;;0.65;;
35150;SDS011;55720;51.972;4.624;2022-11-15T13:30:41;4.57;;;1.10;;
35150;SDS011;55720;51.972;4.624;2022-11-15T13:33:34;3.35;;;0.80;;
35150;SDS011;55720;51.972;4.624;2022-11-15T13:36:09;4.07;;;0.70;;
35150;SDS011;55720;51.972;4.624;2022-11-15T13:38:40;5.05;;;0.75;;
35150;SDS011;55720;51.972;4.624;2022-11-15T13:41:11;3.65;;;0.90;;
35150;SDS011;55720;51.972;4.624;2022-11-15T13:43:43;5.07;;;0.77;;
35150;SDS011;55720;51.972;4.624;2022-11-15T13:48:41;5.45;;;0.77;;
35150;SDS011;55720;51.972;4.624;2022-11-15T13:51:15;2.92;;;0.70;;
35150;SDS011;55720;51.972;4.624;2022-11-15T13:53:43;2.53;;;0.90;;
35150;SDS011;55720;51.972;4.624;2022-11-15T13:56:13;4.65;;;0.85;;
35150;SDS011;55720;51.972;4.624;2022-11-15T13:58:41;8.20;;;1.17;;
35150;SDS011;55720;51.972;4.624;2022-11-15T14:01:11;2.50;;;0.80;;
35150;SDS011;55720;51.972;4.624;2022-11-15T14:03:46;2.72;;;0.77;;
35150;SDS011;55720;51.972;4.624;2022-11-15T14:06:16;5.75;;;0.80;;
35150;SDS011;55720;51.972;4.624;2022-11-15T14:11:34;5.00;;;0.80;;
35150;SDS011;55720;51.972;4.624;2022-11-15T14:16:46;4.55;;;0.60;;
35150;SDS011;55720;51.972;4.624;2022-11-15T14:22:11;3.67;;;1.33;;
35150;SDS011;55720;51.972;4.624;2022-11-15T14:24:37;3.00;;;0.70;;
35150;SDS011;55720;51.972;4.624;2022-11-15T14:27:19;5.43;;;0.63;;
35150;SDS011;55720;51.972;4.624;2022-11-15T14:29:49;3.65;;;0.65;;
35150;SDS011;55720;51.972;4.624;2022-11-15T14:32:22;5.75;;;0.90;;
35150;SDS011;55720;51.972;4.624;2022-11-15T14:34:53;6.30;;;0.82;;
35150;SDS011;55720;51.972;4.624;2022-11-15T14:37:27;5.90;;;0.50;;
35150;SDS011;55720;51.972;4.624;2022-11-15T14:42:22;3.53;;;0.68;;
35150;SDS011;55720;51.972;4.624;2022-11-15T14:44:48;3.70;;;0.70;;
35150;SDS011;55720;51.972;4.624;2022-11-15T14:47:13;3.75;;;0.60;;
35150;SDS011;55720;51.972;4.624;2022-11-15T14:49:39;3.28;;;0.80;;
35150;SDS011;55720;51.972;4.624;2022-11-15T14:52:26;5.20;;;0.80;;
35150;SDS011;55720;51.972;4.624;2022-11-15T14:54:55;8.27;;;0.90;;
35150;SDS011;55720;51.972;4.624;2022-11-15T14:57:21;3.97;;;1.20;;
35150;SDS011;55720;51.972;4.624;2022-11-15T14:59:46;3.25;;;0.60;;
35150;SDS011;55720;51.972;4.624;2022-11-15T15:02:19;2.33;;;1.10;;
35150;SDS011;55720;51.972;4.624;2022-11-15T15:04:46;1.40;;;0.50;;
35150;SDS011;55720;51.972;4.624;2022-11-15T15:07:12;3.42;;;0.98;;
35150;SDS011;55720;51.972;4.624;2022-11-15T15:09:38;0.68;;;0.63;;
35150;SDS011;55720;51.972;4.624;2022-11-15T15:12:04;3.55;;;1.00;;
35150;SDS011;55720;51.972;4.624;2022-11-15T15:14:38;1.75;;;0.80;;
35150;SDS011;55720;51.972;4.624;2022-11-15T15:17:03;6.25;;;0.90;;
35150;SDS011;55720;51.972;4.624;2022-11-15T15:19:29;4.10;;;1.23;;
35150;SDS011;55720;51.972;4.624;2022-11-15T15:21:55;2.83;;;0.88;;
35150;SDS011;55720;51.972;4.624;2022-11-15T15:24:20;2.47;;;0.57;;
35150;SDS011;55720;51.972;4.624;2022-11-15T15:26:45;2.08;;;0.75;;
35150;SDS011;55720;51.972;4.624;2022-11-15T15:29:11;4.38;;;0.80;;
35150;SDS011;55720;51.972;4.624;2022-11-15T15:31:36;1.48;;;0.70;;
35150;SDS011;55720;51.972;4.624;2022-11-15T15:34:01;7.20;;;0.85;;
35150;SDS011;55720;51.972;4.624;2022-11-15T15:36:27;3.92;;;1.35;;
35150;SDS011;55720;51.972;4.624;2022-11-15T15:38:52;5.65;;;0.82;;
35150;SDS011;55720;51.972;4.624;2022-11-15T15:41:17;6.90;;;1.10;;
35150;SDS011;55720;51.972;4.624;2022-11-15T15:43:43;4.70;;;0.95;;
35150;SDS011;55720;51.972;4.624;2022-11-15T15:46:12;1.80;;;0.95;;
35150;SDS011;55720;51.972;4.624;2022-11-15T15:48:42;4.43;;;1.15;;
35150;SDS011;55720;51.972;4.624;2022-11-15T15:51:08;3.35;;;0.90;;
35150;SDS011;55720;51.972;4.624;2022-11-15T15:53:34;3.58;;;1.08;;
35150;SDS011;55720;51.972;4.624;2022-11-15T15:56:00;6.45;;;0.80;;
35150;SDS011;55720;51.972;4.624;2022-11-15T15:58:25;5.07;;;0.95;;
35150;SDS011;55720;51.972;4.624;2022-11-15T16:00:50;5.53;;;1.50;;
35150;SDS011;55720;51.972;4.624;2022-11-15T16:03:16;2.80;;;1.05;;
35150;SDS011;55720;51.972;4.624;2022-11-15T16:05:41;4.88;;;0.93;;
35150;SDS011;55720;51.972;4.624;2022-11-15T16:08:20;4.20;;;0.90;;
35150;SDS011;55720;51.972;4.624;2022-11-15T16:10:47;3.58;;;1.20;;
35150;SDS011;55720;51.972;4.624;2022-11-15T16:13:13;3.20;;;1.10;;
35150;SDS011;55720;51.972;4.624;2022-11-15T16:15:39;3.35;;;1.27;;
35150;SDS011;55720;51.972;4.624;2022-11-15T16:18:04;7.60;;;1.40;;
35150;SDS011;55720;51.972;4.624;2022-11-15T16:23:06;6.38;;;1.55;;
35150;SDS011;55720;51.972;4.624;2022-11-15T16:25:34;4.32;;;1.30;;
35150;SDS011;55720;51.972;4.624;2022-11-15T16:28:03;4.00;;;1.80;;
35150;SDS011;55720;51.972;4.624;2022-11-15T16:30:29;3.05;;;1.55;;
35150;SDS011;55720;51.972;4.624;2022-11-15T16:32:54;8.93;;;1.67;;
35150;SDS011;55720;51.972;4.624;2022-11-15T16:35:20;3.45;;;1.63;;
35150;SDS011;55720;51.972;4.624;2022-11-15T16:37:45;4.13;;;1.70;;
35150;SDS011;55720;51.972;4.624;2022-11-15T16:42:48;5.18;;;1.40;;
35150;SDS011;55720;51.972;4.624;2022-11-15T16:45:14;6.00;;;1.83;;
35150;SDS011;55720;51.972;4.624;2022-11-15T16:47:39;5.97;;;1.70;;
35150;SDS011;55720;51.972;4.624;2022-11-15T16:50:05;7.45;;;1.83;;
35150;SDS011;55720;51.972;4.624;2022-11-15T16:52:30;3.92;;;1.63;;
35150;SDS011;55720;51.972;4.624;2022-11-15T16:54:56;5.85;;;1.90;;
35150;SDS011;55720;51.972;4.624;2022-11-15T16:57:21;6.70;;;2.20;;
35150;SDS011;55720;51.972;4.624;2022-11-15T16:59:46;2.65;;;1.70;;
35150;SDS011;55720;51.972;4.624;2022-11-15T17:02:12;4.97;;;1.98;;
35150;SDS011;55720;51.972;4.624;2022-11-15T17:04:37;3.10;;;1.92;;
35150;SDS011;55720;51.972;4.624;2022-11-15T17:07:03;3.38;;;1.80;;
35150;SDS011;55720;51.972;4.624;2022-11-15T17:09:28;4.57;;;1.90;;
35150;SDS011;55720;51.972;4.624;2022-11-15T17:11:54;4.30;;;1.60;;